Terminal Aerodrome Forecast
Issued by NWS Hastings, NE

Home | Current Version | Previous Version | Text Only | Print | Product List | Glossary On
Versions: 1 2 3 4 5 6 7 8 9 10 11 12 13 14 15 16 17 18 19 20 21
262
FTUS45 KGID 301720
TAFEAR
TAF
KEAR 301720Z 3018/0118 01013KT 6SM -SHRADZ OVC010
     FM010000 36013KT 6SM -SHRADZ OVC004
     FM010900 36013KT P6SM VCSH OVC004
     FM011200 36013KT P6SM VCSH OVC008
     FM011500 36016KT P6SM OVC008
      AMD LTD TO CLD VIS AND WIND=

USA.gov is the U.S. government's official web portal to all federal, state and local government web resources and services.